sensor_id;sensor_type;location;lat;lon;timestamp;temperature;humidity
34726;DHT22;20951;50.818;4.344;2022-10-16T00:01:27;15.00;99.90
34726;DHT22;20951;50.818;4.344;2022-10-16T00:03:55;14.90;99.90
34726;DHT22;20951;50.818;4.344;2022-10-16T00:06:24;14.90;99.90
34726;DHT22;20951;50.818;4.344;2022-10-16T00:08:51;15.00;99.90
34726;DHT22;20951;50.818;4.344;2022-10-16T00:11:26;15.00;99.90
34726;DHT22;20951;50.818;4.344;2022-10-16T00:13:57;15.00;99.90
34726;DHT22;20951;50.818;4.344;2022-10-16T00:16:25;14.90;99.90
34726;DHT22;20951;50.818;4.344;2022-10-16T00:18:53;14.90;99.90
34726;DHT22;20951;50.818;4.344;2022-10-16T00:21:24;14.90;99.90
34726;DHT22;20951;50.818;4.344;2022-10-16T00:23:56;14.90;99.90
34726;DHT22;20951;50.818;4.344;2022-10-16T00:26:24;14.90;99.90
34726;DHT22;20951;50.818;4.344;2022-10-16T00:28:52;14.80;99.90
34726;DHT22;20951;50.818;4.344;2022-10-16T00:31:21;14.70;99.90
34726;DHT22;20951;50.818;4.344;2022-10-16T00:33:49;14.80;99.90
34726;DHT22;20951;50.818;4.344;2022-10-16T00:36:19;14.70;99.90
34726;DHT22;20951;50.818;4.344;2022-10-16T00:38:49;14.80;99.90
34726;DHT22;20951;50.818;4.344;2022-10-16T00:41:19;14.90;99.90
34726;DHT22;20951;50.818;4.344;2022-10-16T00:43:57;14.70;99.90
34726;DHT22;20951;50.818;4.344;2022-10-16T00:46:38;14.80;99.90
34726;DHT22;20951;50.818;4.344;2022-10-16T00:49:15;14.70;99.90
34726;DHT22;20951;50.818;4.344;2022-10-16T00:51:47;14.60;99.90
34726;DHT22;20951;50.818;4.344;2022-10-16T00:54:24;14.60;99.90
34726;DHT22;20951;50.818;4.344;2022-10-16T00:56:54;14.60;99.90
34726;DHT22;20951;50.818;4.344;2022-10-16T00:59:27;14.60;99.90
34726;DHT22;20951;50.818;4.344;2022-10-16T01:01:56;14.50;99.90
34726;DHT22;20951;50.818;4.344;2022-10-16T01:04:24;14.50;99.90
34726;DHT22;20951;50.818;4.344;2022-10-16T01:12:16;14.40;99.90
34726;DHT22;20951;50.818;4.344;2022-10-16T01:14:58;14.50;99.90
34726;DHT22;20951;50.818;4.344;2022-10-16T01:17:51;14.50;99.90
34726;DHT22;20951;50.818;4.344;2022-10-16T01:20:39;14.60;99.90
34726;DHT22;20951;50.818;4.344;2022-10-16T01:31:15;14.40;99.90
34726;DHT22;20951;50.818;4.344;2022-10-16T01:33:46;14.40;99.90
34726;DHT22;20951;50.818;4.344;2022-10-16T01:36:17;14.40;99.90
34726;DHT22;20951;50.818;4.344;2022-10-16T01:38:47;14.50;99.90
34726;DHT22;20951;50.818;4.344;2022-10-16T01:41:43;14.50;99.90
34726;DHT22;20951;50.818;4.344;2022-10-16T01:44:30;14.50;99.90
34726;DHT22;20951;50.818;4.344;2022-10-16T01:46:59;14.60;99.90
34726;DHT22;20951;50.818;4.344;2022-10-16T01:49:30;14.50;99.90
34726;DHT22;20951;50.818;4.344;2022-10-16T01:51:59;14.50;99.90
34726;DHT22;20951;50.818;4.344;2022-10-16T01:54:30;14.50;99.90
34726;DHT22;20951;50.818;4.344;2022-10-16T01:56:59;14.50;99.90
34726;DHT22;20951;50.818;4.344;2022-10-16T01:59:30;14.50;99.90
34726;DHT22;20951;50.818;4.344;2022-10-16T02:02:06;14.50;99.90
34726;DHT22;20951;50.818;4.344;2022-10-16T02:07:11;14.40;99.90
34726;DHT22;20951;50.818;4.344;2022-10-16T02:09:39;14.40;99.90
34726;DHT22;20951;50.818;4.344;2022-10-16T02:12:28;14.40;99.90
34726;DHT22;20951;50.818;4.344;2022-10-16T02:14:58;14.40;99.90
34726;DHT22;20951;50.818;4.344;2022-10-16T02:17:26;14.20;99.90
34726;DHT22;20951;50.818;4.344;2022-10-16T02:19:55;14.20;99.90
34726;DHT22;20951;50.818;4.344;2022-10-16T02:22:36;14.20;99.90
34726;DHT22;20951;50.818;4.344;2022-10-16T02:30:42;14.40;99.90
34726;DHT22;20951;50.818;4.344;2022-10-16T02:33:14;14.40;99.90
34726;DHT22;20951;50.818;4.344;2022-10-16T02:35:44;14.50;99.90
34726;DHT22;20951;50.818;4.344;2022-10-16T02:38:14;14.30;99.90
34726;DHT22;20951;50.818;4.344;2022-10-16T02:40:42;14.40;99.90
34726;DHT22;20951;50.818;4.344;2022-10-16T02:43:11;14.40;99.90
34726;DHT22;20951;50.818;4.344;2022-10-16T02:45:38;14.40;99.90
34726;DHT22;20951;50.818;4.344;2022-10-16T02:48:06;14.40;99.90
34726;DHT22;20951;50.818;4.344;2022-10-16T02:50:34;14.40;99.90
34726;DHT22;20951;50.818;4.344;2022-10-16T02:53:02;14.40;99.90
34726;DHT22;20951;50.818;4.344;2022-10-16T02:55:30;14.20;99.90
34726;DHT22;20951;50.818;4.344;2022-10-16T02:57:58;14.30;99.90
34726;DHT22;20951;50.818;4.344;2022-10-16T03:00:26;14.30;99.90
34726;DHT22;20951;50.818;4.344;2022-10-16T03:02:55;14.40;99.90
34726;DHT22;20951;50.818;4.344;2022-10-16T03:05:22;14.30;99.90
34726;DHT22;20951;50.818;4.344;2022-10-16T03:07:50;14.30;99.90
34726;DHT22;20951;50.818;4.344;2022-10-16T03:10:19;14.30;99.90
34726;DHT22;20951;50.818;4.344;2022-10-16T03:12:47;14.30;99.90
34726;DHT22;20951;50.818;4.344;2022-10-16T03:15:15;14.30;99.90
34726;DHT22;20951;50.818;4.344;2022-10-16T03:17:43;14.30;99.90
34726;DHT22;20951;50.818;4.344;2022-10-16T03:20:11;14.30;99.90
34726;DHT22;20951;50.818;4.344;2022-10-16T03:22:39;14.20;99.90
34726;DHT22;20951;50.818;4.344;2022-10-16T03:25:07;14.30;99.90
34726;DHT22;20951;50.818;4.344;2022-10-16T03:27:35;14.30;99.90
34726;DHT22;20951;50.818;4.344;2022-10-16T03:30:03;14.40;99.90
34726;DHT22;20951;50.818;4.344;2022-10-16T03:32:32;14.30;99.90
34726;DHT22;20951;50.818;4.344;2022-10-16T03:35:00;14.30;99.90
34726;DHT22;20951;50.818;4.344;2022-10-16T03:37:28;14.30;99.90
34726;DHT22;20951;50.818;4.344;2022-10-16T03:39:56;14.30;99.90
34726;DHT22;20951;50.818;4.344;2022-10-16T03:42:24;14.40;99.90
34726;DHT22;20951;50.818;4.344;2022-10-16T03:44:51;14.40;99.90
34726;DHT22;20951;50.818;4.344;2022-10-16T03:47:19;14.30;99.90
34726;DHT22;20951;50.818;4.344;2022-10-16T03:49:49;14.30;99.90
34726;DHT22;20951;50.818;4.344;2022-10-16T03:52:17;14.20;99.90
34726;DHT22;20951;50.818;4.344;2022-10-16T03:54:45;14.30;99.90
34726;DHT22;20951;50.818;4.344;2022-10-16T03:57:13;14.30;99.90
34726;DHT22;20951;50.818;4.344;2022-10-16T03:59:42;14.30;99.90
34726;DHT22;20951;50.818;4.344;2022-10-16T04:02:10;14.30;99.90
34726;DHT22;20951;50.818;4.344;2022-10-16T04:04:39;14.30;99.90
34726;DHT22;20951;50.818;4.344;2022-10-16T04:07:08;14.20;99.90
34726;DHT22;20951;50.818;4.344;2022-10-16T04:09:36;14.30;99.90
34726;DHT22;20951;50.818;4.344;2022-10-16T04:12:04;14.30;99.90
34726;DHT22;20951;50.818;4.344;2022-10-16T04:14:32;14.40;99.90
34726;DHT22;20951;50.818;4.344;2022-10-16T04:17:00;14.40;99.90
34726;DHT22;20951;50.818;4.344;2022-10-16T04:19:28;14.30;99.90
34726;DHT22;20951;50.818;4.344;2022-10-16T04:21:57;14.30;99.90
34726;DHT22;20951;50.818;4.344;2022-10-16T04:24:25;14.20;99.90
34726;DHT22;20951;50.818;4.344;2022-10-16T04:26:53;14.20;99.90
34726;DHT22;20951;50.818;4.344;2022-10-16T04:29:21;14.20;99.90
34726;DHT22;20951;50.818;4.344;2022-10-16T04:31:49;14.20;99.90
34726;DHT22;20951;50.818;4.344;2022-10-16T04:34:17;14.30;99.90
34726;DHT22;20951;50.818;4.344;2022-10-16T04:36:47;14.20;99.90
34726;DHT22;20951;50.818;4.344;2022-10-16T04:39:16;14.20;99.90
34726;DHT22;20951;50.818;4.344;2022-10-16T04:41:44;14.20;99.90
34726;DHT22;20951;50.818;4.344;2022-10-16T04:44:12;14.20;99.90
34726;DHT22;20951;50.818;4.344;2022-10-16T04:46:40;14.20;99.90
34726;DHT22;20951;50.818;4.344;2022-10-16T04:49:09;14.10;99.90
34726;DHT22;20951;50.818;4.344;2022-10-16T04:51:37;14.20;99.90
34726;DHT22;20951;50.818;4.344;2022-10-16T04:54:05;14.20;99.90
34726;DHT22;20951;50.818;4.344;2022-10-16T04:56:33;14.20;99.90
34726;DHT22;20951;50.818;4.344;2022-10-16T04:59:06;14.20;99.90
34726;DHT22;20951;50.818;4.344;2022-10-16T05:01:34;14.20;99.90
34726;DHT22;20951;50.818;4.344;2022-10-16T05:04:02;14.10;99.90
34726;DHT22;20951;50.818;4.344;2022-10-16T05:06:30;14.00;99.90
34726;DHT22;20951;50.818;4.344;2022-10-16T05:08:58;14.10;99.90
34726;DHT22;20951;50.818;4.344;2022-10-16T05:11:26;14.10;99.90
34726;DHT22;20951;50.818;4.344;2022-10-16T05:13:54;14.10;99.90
34726;DHT22;20951;50.818;4.344;2022-10-16T05:16:22;14.00;99.90
34726;DHT22;20951;50.818;4.344;2022-10-16T05:18:51;14.10;99.90
34726;DHT22;20951;50.818;4.344;2022-10-16T05:21:19;14.20;99.90
34726;DHT22;20951;50.818;4.344;2022-10-16T05:23:47;14.20;99.90
34726;DHT22;20951;50.818;4.344;2022-10-16T05:26:15;14.10;99.90
34726;DHT22;20951;50.818;4.344;2022-10-16T05:28:43;14.00;99.90
34726;DHT22;20951;50.818;4.344;2022-10-16T05:31:11;14.10;99.90
34726;DHT22;20951;50.818;4.344;2022-10-16T05:33:38;14.00;99.90
34726;DHT22;20951;50.818;4.344;2022-10-16T05:36:08;14.10;99.90
34726;DHT22;20951;50.818;4.344;2022-10-16T05:38:36;13.90;99.90
34726;DHT22;20951;50.818;4.344;2022-10-16T05:41:05;13.90;99.90
34726;DHT22;20951;50.818;4.344;2022-10-16T05:43:32;14.00;99.90
34726;DHT22;20951;50.818;4.344;2022-10-16T05:46:05;14.00;99.90
34726;DHT22;20951;50.818;4.344;2022-10-16T05:48:33;13.90;99.90
34726;DHT22;20951;50.818;4.344;2022-10-16T05:51:06;14.00;99.90
34726;DHT22;20951;50.818;4.344;2022-10-16T05:53:37;14.00;99.90
34726;DHT22;20951;50.818;4.344;2022-10-16T05:56:05;14.00;99.90
34726;DHT22;20951;50.818;4.344;2022-10-16T05:58:35;14.00;99.90
34726;DHT22;20951;50.818;4.344;2022-10-16T06:01:06;13.90;99.90
34726;DHT22;20951;50.818;4.344;2022-10-16T06:03:34;13.90;99.90
34726;DHT22;20951;50.818;4.344;2022-10-16T06:06:12;13.90;99.90
34726;DHT22;20951;50.818;4.344;2022-10-16T06:08:41;14.00;99.90
34726;DHT22;20951;50.818;4.344;2022-10-16T06:11:13;14.00;99.90
34726;DHT22;20951;50.818;4.344;2022-10-16T06:13:42;14.00;99.90
34726;DHT22;20951;50.818;4.344;2022-10-16T06:16:10;14.00;99.90
34726;DHT22;20951;50.818;4.344;2022-10-16T06:18:38;14.00;99.90
34726;DHT22;20951;50.818;4.344;2022-10-16T06:21:22;14.00;99.90
34726;DHT22;20951;50.818;4.344;2022-10-16T06:23:51;14.10;99.90
34726;DHT22;20951;50.818;4.344;2022-10-16T06:26:21;14.10;99.90
34726;DHT22;20951;50.818;4.344;2022-10-16T06:28:49;14.10;99.90
34726;DHT22;20951;50.818;4.344;2022-10-16T06:31:17;14.00;99.90
34726;DHT22;20951;50.818;4.344;2022-10-16T06:33:45;13.90;99.90
34726;DHT22;20951;50.818;4.344;2022-10-16T06:36:16;14.00;99.90
34726;DHT22;20951;50.818;4.344;2022-10-16T06:38:45;14.00;99.90
34726;DHT22;20951;50.818;4.344;2022-10-16T06:41:15;14.10;99.90
34726;DHT22;20951;50.818;4.344;2022-10-16T06:43:43;14.20;99.90
34726;DHT22;20951;50.818;4.344;2022-10-16T06:46:15;14.20;99.90
34726;DHT22;20951;50.818;4.344;2022-10-16T06:48:44;14.20;99.90
34726;DHT22;20951;50.818;4.344;2022-10-16T06:51:16;14.30;99.90
34726;DHT22;20951;50.818;4.344;2022-10-16T06:53:46;14.30;99.90
34726;DHT22;20951;50.818;4.344;2022-10-16T06:56:25;14.40;99.90
34726;DHT22;20951;50.818;4.344;2022-10-16T06:58:53;14.40;99.90
34726;DHT22;20951;50.818;4.344;2022-10-16T07:01:22;14.50;99.90
34726;DHT22;20951;50.818;4.344;2022-10-16T07:03:50;14.40;99.90
34726;DHT22;20951;50.818;4.344;2022-10-16T07:06:20;14.60;99.90
34726;DHT22;20951;50.818;4.344;2022-10-16T07:08:47;14.70;99.90
34726;DHT22;20951;50.818;4.344;2022-10-16T07:11:24;14.80;99.90
34726;DHT22;20951;50.818;4.344;2022-10-16T07:13:52;14.90;99.90
34726;DHT22;20951;50.818;4.344;2022-10-16T07:16:21;14.90;99.90
34726;DHT22;20951;50.818;4.344;2022-10-16T07:18:49;14.80;99.90
34726;DHT22;20951;50.818;4.344;2022-10-16T07:21:22;14.70;99.90
34726;DHT22;20951;50.818;4.344;2022-10-16T07:23:58;14.70;99.90
34726;DHT22;20951;50.818;4.344;2022-10-16T07:26:28;14.70;99.90
34726;DHT22;20951;50.818;4.344;2022-10-16T07:28:56;14.70;99.90
34726;DHT22;20951;50.818;4.344;2022-10-16T07:31:25;14.70;99.90
34726;DHT22;20951;50.818;4.344;2022-10-16T07:33:53;14.60;99.90
34726;DHT22;20951;50.818;4.344;2022-10-16T07:36:22;14.70;99.90
34726;DHT22;20951;50.818;4.344;2022-10-16T07:38:50;14.70;99.90
34726;DHT22;20951;50.818;4.344;2022-10-16T07:41:19;14.70;99.90
34726;DHT22;20951;50.818;4.344;2022-10-16T07:43:51;14.80;99.90
34726;DHT22;20951;50.818;4.344;2022-10-16T07:46:20;14.80;99.90
34726;DHT22;20951;50.818;4.344;2022-10-16T07:48:48;14.80;99.90
34726;DHT22;20951;50.818;4.344;2022-10-16T07:51:17;14.80;99.90
34726;DHT22;20951;50.818;4.344;2022-10-16T07:53:46;14.90;99.90
34726;DHT22;20951;50.818;4.344;2022-10-16T07:56:13;14.90;99.90
34726;DHT22;20951;50.818;4.344;2022-10-16T07:58:41;14.90;99.90
34726;DHT22;20951;50.818;4.344;2022-10-16T08:01:10;15.00;99.90
34726;DHT22;20951;50.818;4.344;2022-10-16T08:03:49;15.10;99.90
34726;DHT22;20951;50.818;4.344;2022-10-16T08:06:18;15.20;99.90
34726;DHT22;20951;50.818;4.344;2022-10-16T08:08:47;15.20;99.90
34726;DHT22;20951;50.818;4.344;2022-10-16T08:11:14;15.30;99.90
34726;DHT22;20951;50.818;4.344;2022-10-16T08:13:42;15.30;99.90
34726;DHT22;20951;50.818;4.344;2022-10-16T08:16:11;15.30;99.90
34726;DHT22;20951;50.818;4.344;2022-10-16T08:18:40;15.30;99.90
34726;DHT22;20951;50.818;4.344;2022-10-16T08:21:13;15.40;99.90
34726;DHT22;20951;50.818;4.344;2022-10-16T08:23:41;15.60;99.90
34726;DHT22;20951;50.818;4.344;2022-10-16T08:26:09;15.50;99.90
34726;DHT22;20951;50.818;4.344;2022-10-16T08:28:37;15.40;99.90
34726;DHT22;20951;50.818;4.344;2022-10-16T08:31:10;15.50;99.90
34726;DHT22;20951;50.818;4.344;2022-10-16T08:33:40;15.60;99.90
34726;DHT22;20951;50.818;4.344;2022-10-16T08:36:10;15.60;99.90
34726;DHT22;20951;50.818;4.344;2022-10-16T08:38:38;15.70;99.90
34726;DHT22;20951;50.818;4.344;2022-10-16T08:47:34;15.90;99.90
34726;DHT22;20951;50.818;4.344;2022-10-16T08:50:09;16.10;99.90
34726;DHT22;20951;50.818;4.344;2022-10-16T08:52:39;16.20;99.90
34726;DHT22;20951;50.818;4.344;2022-10-16T08:55:06;16.30;99.90
34726;DHT22;20951;50.818;4.344;2022-10-16T08:57:31;16.40;99.90
34726;DHT22;20951;50.818;4.344;2022-10-16T09:00:12;16.30;99.90
34726;DHT22;20951;50.818;4.344;2022-10-16T09:03:06;16.30;99.90
34726;DHT22;20951;50.818;4.344;2022-10-16T09:05:54;16.50;99.90
34726;DHT22;20951;50.818;4.344;2022-10-16T09:11:25;16.20;99.90
34726;DHT22;20951;50.818;4.344;2022-10-16T09:16:49;16.40;99.90
34726;DHT22;20951;50.818;4.344;2022-10-16T09:19:23;16.60;99.90
34726;DHT22;20951;50.818;4.344;2022-10-16T09:21:53;16.70;99.90
34726;DHT22;20951;50.818;4.344;2022-10-16T09:24:25;16.80;99.90
34726;DHT22;20951;50.818;4.344;2022-10-16T09:26:53;16.90;99.90
34726;DHT22;20951;50.818;4.344;2022-10-16T09:29:21;17.10;99.90
34726;DHT22;20951;50.818;4.344;2022-10-16T09:31:53;17.30;99.90
34726;DHT22;20951;50.818;4.344;2022-10-16T09:34:32;17.40;99.90
34726;DHT22;20951;50.818;4.344;2022-10-16T09:37:00;17.50;99.90
34726;DHT22;20951;50.818;4.344;2022-10-16T09:39:28;17.50;99.90
34726;DHT22;20951;50.818;4.344;2022-10-16T09:41:56;17.50;99.90
34726;DHT22;20951;50.818;4.344;2022-10-16T09:44:25;17.50;99.90
34726;DHT22;20951;50.818;4.344;2022-10-16T09:47:27;17.80;99.90
34726;DHT22;20951;50.818;4.344;2022-10-16T09:50:02;17.90;99.90
34726;DHT22;20951;50.818;4.344;2022-10-16T09:52:31;17.90;99.90
34726;DHT22;20951;50.818;4.344;2022-10-16T09:55:00;18.00;99.90
34726;DHT22;20951;50.818;4.344;2022-10-16T09:57:28;18.10;99.90
34726;DHT22;20951;50.818;4.344;2022-10-16T09:59:59;18.30;99.90
34726;DHT22;20951;50.818;4.344;2022-10-16T10:02:36;18.30;99.90
34726;DHT22;20951;50.818;4.344;2022-10-16T10:05:19;18.60;99.90
34726;DHT22;20951;50.818;4.344;2022-10-16T10:07:57;18.60;99.90
34726;DHT22;20951;50.818;4.344;2022-10-16T10:12:55;18.90;99.90
34726;DHT22;20951;50.818;4.344;2022-10-16T10:15:23;18.80;99.90
34726;DHT22;20951;50.818;4.344;2022-10-16T10:17:55;19.10;99.90
34726;DHT22;20951;50.818;4.344;2022-10-16T10:20:29;19.40;99.90
34726;DHT22;20951;50.818;4.344;2022-10-16T10:22:59;20.00;99.90
34726;DHT22;20951;50.818;4.344;2022-10-16T10:25:49;20.40;99.90
34726;DHT22;20951;50.818;4.344;2022-10-16T10:37:00;20.90;99.90
34726;DHT22;20951;50.818;4.344;2022-10-16T10:39:54;22.00;99.90
34726;DHT22;20951;50.818;4.344;2022-10-16T10:42:40;22.20;99.90
34726;DHT22;20951;50.818;4.344;2022-10-16T10:45:27;22.20;99.90
34726;DHT22;20951;50.818;4.344;2022-10-16T10:48:00;22.20;99.90
34726;DHT22;20951;50.818;4.344;2022-10-16T10:56:29;23.20;99.90
34726;DHT22;20951;50.818;4.344;2022-10-16T11:05:17;23.50;99.90
34726;DHT22;20951;50.818;4.344;2022-10-16T11:10:44;25.30;99.90
34726;DHT22;20951;50.818;4.344;2022-10-16T11:15:47;27.10;99.90
34726;DHT22;20951;50.818;4.344;2022-10-16T11:18:23;27.30;99.90
34726;DHT22;20951;50.818;4.344;2022-10-16T11:21:02;27.40;99.90
34726;DHT22;20951;50.818;4.344;2022-10-16T11:26:24;25.70;99.90
34726;DHT22;20951;50.818;4.344;2022-10-16T11:28:53;25.20;99.90
34726;DHT22;20951;50.818;4.344;2022-10-16T11:31:37;25.80;99.90
34726;DHT22;20951;50.818;4.344;2022-10-16T11:37:03;26.10;99.90
34726;DHT22;20951;50.818;4.344;2022-10-16T11:39:32;25.80;99.90
34726;DHT22;20951;50.818;4.344;2022-10-16T11:42:10;25.60;99.90
34726;DHT22;20951;50.818;4.344;2022-10-16T11:45:03;25.40;99.90
34726;DHT22;20951;50.818;4.344;2022-10-16T11:50:25;25.10;99.90
34726;DHT22;20951;50.818;4.344;2022-10-16T11:55:47;24.80;99.90
34726;DHT22;20951;50.818;4.344;2022-10-16T11:58:51;24.60;99.90
34726;DHT22;20951;50.818;4.344;2022-10-16T12:01:33;23.80;99.90
34726;DHT22;20951;50.818;4.344;2022-10-16T12:04:19;23.20;99.90
34726;DHT22;20951;50.818;4.344;2022-10-16T12:07:15;22.70;99.90
34726;DHT22;20951;50.818;4.344;2022-10-16T12:09:45;22.30;99.90
34726;DHT22;20951;50.818;4.344;2022-10-16T12:12:26;22.40;99.90
34726;DHT22;20951;50.818;4.344;2022-10-16T12:17:50;23.00;99.90
34726;DHT22;20951;50.818;4.344;2022-10-16T12:22:50;22.90;99.90
34726;DHT22;20951;50.818;4.344;2022-10-16T12:27:59;22.40;99.90
34726;DHT22;20951;50.818;4.344;2022-10-16T12:30:28;22.40;99.90
34726;DHT22;20951;50.818;4.344;2022-10-16T12:33:03;22.60;99.90
34726;DHT22;20951;50.818;4.344;2022-10-16T12:35:43;22.50;99.90
34726;DHT22;20951;50.818;4.344;2022-10-16T12:38:27;22.30;99.90
34726;DHT22;20951;50.818;4.344;2022-10-16T12:41:08;22.50;99.90
34726;DHT22;20951;50.818;4.344;2022-10-16T12:43:47;22.50;99.90
34726;DHT22;20951;50.818;4.344;2022-10-16T12:48:42;21.80;99.90
34726;DHT22;20951;50.818;4.344;2022-10-16T12:51:25;21.60;99.90
34726;DHT22;20951;50.818;4.344;2022-10-16T12:54:11;21.30;99.90
34726;DHT22;20951;50.818;4.344;2022-10-16T13:02:14;21.60;99.90
34726;DHT22;20951;50.818;4.344;2022-10-16T13:29:54;21.60;99.90
34726;DHT22;20951;50.818;4.344;2022-10-16T13:32:26;21.80;99.90
34726;DHT22;20951;50.818;4.344;2022-10-16T13:34:52;21.50;99.90
34726;DHT22;20951;50.818;4.344;2022-10-16T13:37:21;22.40;99.90
34726;DHT22;20951;50.818;4.344;2022-10-16T13:39:48;22.60;99.90
34726;DHT22;20951;50.818;4.344;2022-10-16T13:42:23;22.80;99.90
34726;DHT22;20951;50.818;4.344;2022-10-16T13:44:52;22.20;99.90
34726;DHT22;20951;50.818;4.344;2022-10-16T13:47:23;21.30;99.90
34726;DHT22;20951;50.818;4.344;2022-10-16T13:50:19;20.80;99.90
34726;DHT22;20951;50.818;4.344;2022-10-16T13:52:46;20.50;99.90
34726;DHT22;20951;50.818;4.344;2022-10-16T13:55:17;20.70;99.90
34726;DHT22;20951;50.818;4.344;2022-10-16T13:57:44;21.00;99.90
34726;DHT22;20951;50.818;4.344;2022-10-16T14:00:26;20.80;99.90
34726;DHT22;20951;50.818;4.344;2022-10-16T14:03:15;21.20;99.90
34726;DHT22;20951;50.818;4.344;2022-10-16T14:05:52;21.00;99.90
34726;DHT22;20951;50.818;4.344;2022-10-16T14:08:22;21.10;99.90
34726;DHT22;20951;50.818;4.344;2022-10-16T14:10:52;20.90;99.90
34726;DHT22;20951;50.818;4.344;2022-10-16T14:13:23;21.00;99.90
34726;DHT22;20951;50.818;4.344;2022-10-16T14:15:53;20.90;99.90
34726;DHT22;20951;50.818;4.344;2022-10-16T14:18:25;20.80;99.90
34726;DHT22;20951;50.818;4.344;2022-10-16T14:20:55;20.60;99.90
34726;DHT22;20951;50.818;4.344;2022-10-16T14:23:33;20.40;99.90
34726;DHT22;20951;50.818;4.344;2022-10-16T14:26:14;20.40;99.90
34726;DHT22;20951;50.818;4.344;2022-10-16T14:28:42;20.40;99.90
34726;DHT22;20951;50.818;4.344;2022-10-16T14:33:52;20.30;99.90
34726;DHT22;20951;50.818;4.344;2022-10-16T14:36:20;20.30;99.90
34726;DHT22;20951;50.818;4.344;2022-10-16T14:39:00;20.40;99.90
34726;DHT22;20951;50.818;4.344;2022-10-16T14:41:29;20.40;99.90
34726;DHT22;20951;50.818;4.344;2022-10-16T14:44:04;20.60;99.90
34726;DHT22;20951;50.818;4.344;2022-10-16T14:46:35;20.50;99.90
34726;DHT22;20951;50.818;4.344;2022-10-16T14:51:32;20.50;99.90
34726;DHT22;20951;50.818;4.344;2022-10-16T14:54:01;20.60;99.90
34726;DHT22;20951;50.818;4.344;2022-10-16T14:57:17;20.70;99.90
34726;DHT22;20951;50.818;4.344;2022-10-16T14:59:28;20.70;99.90
34726;DHT22;20951;50.818;4.344;2022-10-16T15:01:57;20.70;99.90
34726;DHT22;20951;50.818;4.344;2022-10-16T15:04:24;20.50;99.90
34726;DHT22;20951;50.818;4.344;2022-10-16T15:06:50;20.20;99.90
34726;DHT22;20951;50.818;4.344;2022-10-16T15:09:16;20.30;99.90
34726;DHT22;20951;50.818;4.344;2022-10-16T15:11:42;20.50;99.90
34726;DHT22;20951;50.818;4.344;2022-10-16T15:14:11;20.30;99.90
34726;DHT22;20951;50.818;4.344;2022-10-16T15:16:38;20.10;99.90
34726;DHT22;20951;50.818;4.344;2022-10-16T15:19:04;20.20;99.90
34726;DHT22;20951;50.818;4.344;2022-10-16T15:21:32;20.30;99.90
34726;DHT22;20951;50.818;4.344;2022-10-16T15:23:58;20.20;99.90
34726;DHT22;20951;50.818;4.344;2022-10-16T15:26:27;20.30;99.90
34726;DHT22;20951;50.818;4.344;2022-10-16T15:28:53;20.30;99.90
34726;DHT22;20951;50.818;4.344;2022-10-16T15:31:20;20.30;99.90
34726;DHT22;20951;50.818;4.344;2022-10-16T15:33:50;20.30;99.90
34726;DHT22;20951;50.818;4.344;2022-10-16T15:36:28;20.30;99.90
34726;DHT22;20951;50.818;4.344;2022-10-16T15:38:54;20.20;99.90
34726;DHT22;20951;50.818;4.344;2022-10-16T15:41:21;20.20;99.90
34726;DHT22;20951;50.818;4.344;2022-10-16T15:43:50;20.20;99.90
34726;DHT22;20951;50.818;4.344;2022-10-16T15:46:22;20.10;99.90
34726;DHT22;20951;50.818;4.344;2022-10-16T15:48:49;20.00;99.90
34726;DHT22;20951;50.818;4.344;2022-10-16T15:51:16;20.00;99.90
34726;DHT22;20951;50.818;4.344;2022-10-16T15:53:42;20.10;99.90
34726;DHT22;20951;50.818;4.344;2022-10-16T15:56:10;20.00;99.90
34726;DHT22;20951;50.818;4.344;2022-10-16T15:58:36;20.00;99.90
34726;DHT22;20951;50.818;4.344;2022-10-16T16:01:03;20.00;99.90
34726;DHT22;20951;50.818;4.344;2022-10-16T16:03:30;19.90;99.90
34726;DHT22;20951;50.818;4.344;2022-10-16T16:05:57;19.80;99.90
34726;DHT22;20951;50.818;4.344;2022-10-16T16:08:23;19.70;99.90
34726;DHT22;20951;50.818;4.344;2022-10-16T16:11:13;19.80;99.90
34726;DHT22;20951;50.818;4.344;2022-10-16T16:13:39;19.70;99.90
34726;DHT22;20951;50.818;4.344;2022-10-16T16:16:11;19.60;99.90
34726;DHT22;20951;50.818;4.344;2022-10-16T16:18:37;19.60;99.90
34726;DHT22;20951;50.818;4.344;2022-10-16T16:21:04;19.50;99.90
34726;DHT22;20951;50.818;4.344;2022-10-16T16:23:30;19.50;99.90
34726;DHT22;20951;50.818;4.344;2022-10-16T16:26:33;19.50;99.90
34726;DHT22;20951;50.818;4.344;2022-10-16T16:29:02;19.60;99.90
34726;DHT22;20951;50.818;4.344;2022-10-16T16:31:32;19.50;99.90
34726;DHT22;20951;50.818;4.344;2022-10-16T16:33:59;19.40;99.90
34726;DHT22;20951;50.818;4.344;2022-10-16T16:36:25;19.40;99.90
34726;DHT22;20951;50.818;4.344;2022-10-16T16:38:51;19.30;99.90
34726;DHT22;20951;50.818;4.344;2022-10-16T16:41:19;19.40;99.90
34726;DHT22;20951;50.818;4.344;2022-10-16T16:43:46;19.20;99.90
34726;DHT22;20951;50.818;4.344;2022-10-16T16:46:13;19.10;99.90
34726;DHT22;20951;50.818;4.344;2022-10-16T16:48:40;19.10;99.90
34726;DHT22;20951;50.818;4.344;2022-10-16T16:51:07;19.10;99.90
34726;DHT22;20951;50.818;4.344;2022-10-16T16:53:37;19.10;99.90
34726;DHT22;20951;50.818;4.344;2022-10-16T16:56:04;19.00;99.90
34726;DHT22;20951;50.818;4.344;2022-10-16T16:58:31;19.00;99.90
34726;DHT22;20951;50.818;4.344;2022-10-16T17:00:58;19.00;99.90
34726;DHT22;20951;50.818;4.344;2022-10-16T17:03:36;19.00;99.90
34726;DHT22;20951;50.818;4.344;2022-10-16T17:06:05;19.00;99.90
34726;DHT22;20951;50.818;4.344;2022-10-16T17:08:32;18.70;99.90
34726;DHT22;20951;50.818;4.344;2022-10-16T17:10:58;18.40;99.90
34726;DHT22;20951;50.818;4.344;2022-10-16T17:13:26;18.30;99.90
34726;DHT22;20951;50.818;4.344;2022-10-16T17:15:53;18.20;99.90
34726;DHT22;20951;50.818;4.344;2022-10-16T17:18:21;18.20;99.90
34726;DHT22;20951;50.818;4.344;2022-10-16T17:20:49;18.00;99.90
34726;DHT22;20951;50.818;4.344;2022-10-16T17:23:16;17.80;99.90
34726;DHT22;20951;50.818;4.344;2022-10-16T17:25:43;17.80;99.90
34726;DHT22;20951;50.818;4.344;2022-10-16T17:28:10;17.80;99.90
34726;DHT22;20951;50.818;4.344;2022-10-16T17:30:37;17.70;99.90
34726;DHT22;20951;50.818;4.344;2022-10-16T17:33:04;17.60;99.90
34726;DHT22;20951;50.818;4.344;2022-10-16T17:35:42;17.40;99.90
34726;DHT22;20951;50.818;4.344;2022-10-16T17:38:09;17.40;99.90
34726;DHT22;20951;50.818;4.344;2022-10-16T17:40:36;17.40;99.90
34726;DHT22;20951;50.818;4.344;2022-10-16T17:43:02;17.30;99.90
34726;DHT22;20951;50.818;4.344;2022-10-16T17:45:28;17.30;99.90
34726;DHT22;20951;50.818;4.344;2022-10-16T17:47:54;17.40;99.90
34726;DHT22;20951;50.818;4.344;2022-10-16T17:50:20;17.40;99.90
34726;DHT22;20951;50.818;4.344;2022-10-16T17:52:46;17.20;99.90
34726;DHT22;20951;50.818;4.344;2022-10-16T17:55:12;17.20;99.90